CPA3YM RCTP-VHHX
Flight info
| Callsign | CPA3YM |
|---|---|
| Flight time | 1h 17m |
| Altitude | 36000 |
| Route | CHALI1A CHALI T3 MKG A1 ELATO DCT MAGOG DCT ALPHA DCT MAG50 DCT MAG30 DCT CH DCT GOLF DCT SL DCT D15 DCT OM13 DCT MM13 |
| Aircraft | B77W/H-SDE1E2E3FGHIJ2J3J4J5M1RWXY/LB1D1 |
Departure
| Time | 2026-05-08 11:24 |
|---|---|
| Airport | Taiwan Taoyuan International Airport (RCTP) |
Arrival
| Time | 2026-05-08 12:42 |
|---|---|
| Airport | Hong Kong International Airport Kai Tak (VHHX) |
| Time | Latitude | Longitude | Altitude | Speed | Heading |
|---|---|---|---|---|---|
| 2026-05-08 11:03 | 25.07780 | 121.23673 | 106 ft | 0 kts | 319° |
| 2026-05-08 11:15 | 25.07762 | 121.23690 | 104 ft | 4 kts | 319° |
| 2026-05-08 11:15 | 25.07742 | 121.23709 | 104 ft | 4 kts | 319° |
| 2026-05-08 11:15 | 25.07721 | 121.23729 | 104 ft | 4 kts | 319° |
| 2026-05-08 11:15 | 25.07702 | 121.23747 | 103 ft | 4 kts | 314° |
| 2026-05-08 11:16 | 25.07694 | 121.23764 | 104 ft | 4 kts | 232° |
| 2026-05-08 11:16 | 25.07714 | 121.23783 | 103 ft | 4 kts | 221° |
| 2026-05-08 11:16 | 25.07725 | 121.23795 | 105 ft | 1 kts | 229° |
| 2026-05-08 11:16 | 25.07726 | 121.23796 | 105 ft | 0 kts | 229° |
| 2026-05-08 11:18 | 25.07722 | 121.23791 | 105 ft | 4 kts | 231° |
| 2026-05-08 11:18 | 25.07682 | 121.23740 | 104 ft | 12 kts | 229° |
| 2026-05-08 11:19 | 25.07602 | 121.23706 | 106 ft | 14 kts | 160° |
| 2026-05-08 11:19 | 25.07526 | 121.23768 | 106 ft | 14 kts | 146° |
| 2026-05-08 11:19 | 25.07437 | 121.23748 | 105 ft | 15 kts | 220° |
| 2026-05-08 11:19 | 25.07357 | 121.23648 | 106 ft | 20 kts | 229° |
| 2026-05-08 11:20 | 25.07247 | 121.23509 | 107 ft | 28 kts | 228° |
| 2026-05-08 11:20 | 25.07103 | 121.23328 | 106 ft | 35 kts | 229° |
| 2026-05-08 11:20 | 25.06968 | 121.23158 | 107 ft | 20 kts | 229° |
| 2026-05-08 11:20 | 25.06874 | 121.23041 | 107 ft | 20 kts | 229° |
| 2026-05-08 11:21 | 25.06781 | 121.22922 | 107 ft | 20 kts | 229° |
| 2026-05-08 11:21 | 25.06688 | 121.22804 | 107 ft | 20 kts | 229° |
| 2026-05-08 11:21 | 25.06596 | 121.22685 | 107 ft | 20 kts | 229° |
| 2026-05-08 11:21 | 25.06502 | 121.22567 | 107 ft | 20 kts | 228° |
| 2026-05-08 11:22 | 25.06411 | 121.22448 | 107 ft | 20 kts | 230° |
| 2026-05-08 11:22 | 25.06317 | 121.22330 | 107 ft | 20 kts | 215° |
| 2026-05-08 11:22 | 25.06212 | 121.22384 | 105 ft | 18 kts | 135° |
| 2026-05-08 11:22 | 25.06191 | 121.22490 | 102 ft | 13 kts | 50° |
| 2026-05-08 11:23 | 25.06208 | 121.22511 | 100 ft | 0 kts | 50° |
| 2026-05-08 11:23 | 25.06236 | 121.22548 | 103 ft | 28 kts | 49° |
| 2026-05-08 11:23 | 25.06564 | 121.22961 | 99 ft | 113 kts | 49° |
| 2026-05-08 11:24 | 25.07218 | 121.23801 | 251 ft | 163 kts | 48° |
| 2026-05-08 11:24 | 25.07941 | 121.24751 | 1199 ft | 150 kts | 48° |
| 2026-05-08 11:24 | 25.08615 | 121.25548 | 2310 ft | 146 kts | 51° |
| 2026-05-08 11:24 | 25.09299 | 121.26439 | 3002 ft | 157 kts | 52° |
| 2026-05-08 11:25 | 25.10020 | 121.27385 | 3716 ft | 166 kts | 52° |
| 2026-05-08 11:25 | 25.10782 | 121.28382 | 4465 ft | 177 kts | 52° |
| 2026-05-08 11:25 | 25.11652 | 121.29505 | 4876 ft | 210 kts | 48° |
| 2026-05-08 11:25 | 25.13001 | 121.30392 | 5145 ft | 254 kts | 17° |
| 2026-05-08 11:26 | 25.14849 | 121.30290 | 5811 ft | 284 kts | 343° |
| 2026-05-08 11:26 | 25.16552 | 121.29069 | 6719 ft | 291 kts | 312° |
| 2026-05-08 11:26 | 25.17854 | 121.27448 | 7999 ft | 282 kts | 306° |
| 2026-05-08 11:26 | 25.19086 | 121.25771 | 9213 ft | 285 kts | 308° |
| 2026-05-08 11:27 | 25.20340 | 121.24073 | 10294 ft | 287 kts | 307° |
| 2026-05-08 11:27 | 25.21653 | 121.22337 | 11025 ft | 306 kts | 308° |
| 2026-05-08 11:27 | 25.23111 | 121.20460 | 11335 ft | 338 kts | 308° |
| 2026-05-08 11:27 | 25.24714 | 121.18430 | 11897 ft | 356 kts | 308° |
| 2026-05-08 11:28 | 25.26107 | 121.16203 | 12744 ft | 357 kts | 291° |
| 2026-05-08 11:28 | 25.26663 | 121.13546 | 13806 ft | 357 kts | 272° |
| 2026-05-08 11:28 | 25.26414 | 121.10808 | 14806 ft | 359 kts | 257° |
| 2026-05-08 11:28 | 25.25526 | 121.08224 | 15834 ft | 363 kts | 242° |
| 2026-05-08 11:29 | 25.23967 | 121.06041 | 16934 ft | 365 kts | 230° |
| 2026-05-08 11:29 | 25.22118 | 121.04020 | 17515 ft | 383 kts | 223° |
| 2026-05-08 11:29 | 25.20021 | 121.02146 | 18293 ft | 390 kts | 222° |
| 2026-05-08 11:29 | 25.17873 | 121.00277 | 19024 ft | 397 kts | 222° |
| 2026-05-08 11:30 | 25.15689 | 120.98383 | 19784 ft | 400 kts | 221° |
| 2026-05-08 11:30 | 25.13497 | 120.96488 | 20653 ft | 402 kts | 222° |
| 2026-05-08 11:30 | 25.11285 | 120.94564 | 21308 ft | 409 kts | 221° |
| 2026-05-08 11:30 | 25.09036 | 120.92602 | 21965 ft | 415 kts | 221° |
| 2026-05-08 11:31 | 25.06763 | 120.90619 | 22754 ft | 418 kts | 222° |
| 2026-05-08 11:31 | 25.04498 | 120.88643 | 23451 ft | 422 kts | 222° |
| 2026-05-08 11:31 | 25.02191 | 120.86628 | 24091 ft | 426 kts | 221° |
| 2026-05-08 11:31 | 24.99852 | 120.84582 | 24648 ft | 430 kts | 223° |
| 2026-05-08 11:32 | 24.97496 | 120.82522 | 25213 ft | 434 kts | 223° |
| 2026-05-08 11:32 | 24.95120 | 120.80447 | 25806 ft | 438 kts | 223° |
| 2026-05-08 11:32 | 24.92718 | 120.78350 | 26323 ft | 443 kts | 222° |
| 2026-05-08 11:32 | 24.90286 | 120.76226 | 26814 ft | 448 kts | 222° |
| 2026-05-08 11:33 | 24.87833 | 120.74087 | 27389 ft | 452 kts | 223° |
| 2026-05-08 11:33 | 24.85359 | 120.71932 | 27932 ft | 455 kts | 223° |
| 2026-05-08 11:33 | 24.82865 | 120.69759 | 28460 ft | 459 kts | 223° |
| 2026-05-08 11:33 | 24.80352 | 120.67572 | 28988 ft | 462 kts | 223° |
| 2026-05-08 11:34 | 24.77818 | 120.65367 | 29492 ft | 466 kts | 223° |
| 2026-05-08 11:34 | 24.75268 | 120.63150 | 30005 ft | 469 kts | 223° |
| 2026-05-08 11:34 | 24.72700 | 120.60918 | 30429 ft | 471 kts | 223° |
| 2026-05-08 11:34 | 24.70121 | 120.58678 | 30830 ft | 474 kts | 223° |
| 2026-05-08 11:35 | 24.67527 | 120.56426 | 31212 ft | 476 kts | 223° |
| 2026-05-08 11:35 | 24.64914 | 120.54159 | 31474 ft | 481 kts | 223° |
| 2026-05-08 11:35 | 24.62281 | 120.51876 | 31883 ft | 482 kts | 223° |
| 2026-05-08 11:35 | 24.59693 | 120.49635 | 32444 ft | 479 kts | 223° |
| 2026-05-08 11:36 | 24.57084 | 120.47378 | 33024 ft | 476 kts | 223° |
| 2026-05-08 11:36 | 24.54488 | 120.45133 | 33567 ft | 474 kts | 223° |
| 2026-05-08 11:36 | 24.51896 | 120.42891 | 34064 ft | 474 kts | 223° |
| 2026-05-08 11:36 | 24.49310 | 120.40654 | 34487 ft | 473 kts | 224° |
| 2026-05-08 11:37 | 24.46730 | 120.38423 | 34922 ft | 471 kts | 224° |
| 2026-05-08 11:37 | 24.44159 | 120.36203 | 35375 ft | 469 kts | 224° |
| 2026-05-08 11:37 | 24.41593 | 120.33986 | 35695 ft | 471 kts | 224° |
| 2026-05-08 11:37 | 24.39010 | 120.31755 | 36024 ft | 472 kts | 224° |
| 2026-05-08 11:38 | 24.36437 | 120.29535 | 36453 ft | 470 kts | 224° |
| 2026-05-08 11:38 | 24.33872 | 120.27325 | 36926 ft | 468 kts | 224° |
| 2026-05-08 11:38 | 24.31414 | 120.25020 | 37340 ft | 462 kts | 230° |
| 2026-05-08 11:38 | 24.29207 | 120.22491 | 37685 ft | 457 kts | 235° |
| 2026-05-08 11:39 | 24.27262 | 120.19758 | 37942 ft | 456 kts | 238° |
| 2026-05-08 11:39 | 24.23414 | 120.14180 | 38003 ft | 459 kts | 238° |
| 2026-05-08 11:40 | 24.19564 | 120.08657 | 37997 ft | 453 kts | 238° |
| 2026-05-08 11:40 | 24.15732 | 120.03192 | 38018 ft | 452 kts | 238° |
| 2026-05-08 11:41 | 24.11896 | 119.97733 | 38010 ft | 452 kts | 238° |
| 2026-05-08 11:41 | 24.08055 | 119.92274 | 38019 ft | 453 kts | 238° |
| 2026-05-08 11:42 | 24.04205 | 119.86809 | 38007 ft | 454 kts | 238° |
| 2026-05-08 11:42 | 24.00348 | 119.81340 | 38009 ft | 454 kts | 238° |
| 2026-05-08 11:43 | 23.96485 | 119.75869 | 38027 ft | 455 kts | 238° |
| 2026-05-08 11:43 | 23.92639 | 119.70427 | 38013 ft | 455 kts | 237° |
| 2026-05-08 11:44 | 23.88766 | 119.64952 | 38006 ft | 456 kts | 237° |
| 2026-05-08 11:44 | 23.84885 | 119.59474 | 38003 ft | 456 kts | 237° |
| 2026-05-08 11:45 | 23.81004 | 119.54001 | 38005 ft | 456 kts | 237° |
| 2026-05-08 11:45 | 23.77775 | 119.49452 | 38004 ft | 456 kts | 237° |
| 2026-05-08 11:46 | 23.73889 | 119.43984 | 38012 ft | 456 kts | 237° |
| 2026-05-08 11:46 | 23.69998 | 119.38513 | 38008 ft | 457 kts | 237° |
| 2026-05-08 11:47 | 23.66099 | 119.33037 | 38013 ft | 457 kts | 237° |
| 2026-05-08 11:47 | 23.62194 | 119.27559 | 38007 ft | 457 kts | 237° |
| 2026-05-08 11:48 | 23.58291 | 119.22091 | 38023 ft | 457 kts | 237° |
| 2026-05-08 11:48 | 23.54380 | 119.16617 | 38011 ft | 458 kts | 237° |
| 2026-05-08 11:49 | 23.50464 | 119.11140 | 38025 ft | 459 kts | 237° |
| 2026-05-08 11:49 | 23.46537 | 119.05655 | 38028 ft | 460 kts | 236° |
| 2026-05-08 11:50 | 23.42600 | 119.00162 | 38028 ft | 460 kts | 236° |
| 2026-05-08 11:50 | 23.38656 | 118.94665 | 38034 ft | 460 kts | 236° |
| 2026-05-08 11:51 | 23.34712 | 118.89175 | 38019 ft | 460 kts | 236° |
| 2026-05-08 11:51 | 23.30767 | 118.83689 | 38028 ft | 460 kts | 236° |
| 2026-05-08 11:52 | 23.26996 | 118.78093 | 38022 ft | 455 kts | 244° |
| 2026-05-08 11:52 | 23.24251 | 118.71946 | 38023 ft | 449 kts | 253° |
| 2026-05-08 11:53 | 23.22226 | 118.65536 | 38039 ft | 448 kts | 255° |
| 2026-05-08 11:53 | 23.20228 | 118.59115 | 38029 ft | 448 kts | 255° |
| 2026-05-08 11:54 | 23.18227 | 118.52749 | 38029 ft | 448 kts | 254° |
| 2026-05-08 11:54 | 23.16200 | 118.46352 | 38015 ft | 448 kts | 255° |
| 2026-05-08 11:55 | 23.14166 | 118.39960 | 38021 ft | 447 kts | 255° |
| 2026-05-08 11:55 | 23.12131 | 118.33575 | 38030 ft | 447 kts | 255° |
| 2026-05-08 11:56 | 23.10092 | 118.27188 | 38028 ft | 447 kts | 255° |
| 2026-05-08 11:56 | 23.08052 | 118.20804 | 38025 ft | 448 kts | 255° |
| 2026-05-08 11:57 | 23.06008 | 118.14419 | 38025 ft | 448 kts | 255° |
| 2026-05-08 11:57 | 23.03960 | 118.08033 | 38028 ft | 448 kts | 255° |
| 2026-05-08 11:58 | 23.01911 | 118.01651 | 38027 ft | 448 kts | 254° |
| 2026-05-08 11:58 | 22.99858 | 117.95271 | 38028 ft | 448 kts | 254° |
| 2026-05-08 11:59 | 22.96772 | 117.85694 | 38024 ft | 449 kts | 254° |
| 2026-05-08 11:59 | 22.94703 | 117.79282 | 38028 ft | 451 kts | 254° |
| 2026-05-08 12:00 | 22.92621 | 117.72843 | 38031 ft | 453 kts | 254° |
| 2026-05-08 12:00 | 22.90529 | 117.66384 | 38029 ft | 454 kts | 254° |
| 2026-05-08 12:01 | 22.88443 | 117.59956 | 38025 ft | 455 kts | 254° |
| 2026-05-08 12:01 | 22.86340 | 117.53483 | 38025 ft | 455 kts | 254° |
| 2026-05-08 12:02 | 22.84235 | 117.47016 | 38026 ft | 455 kts | 253° |
| 2026-05-08 12:02 | 22.82131 | 117.40559 | 38022 ft | 454 kts | 253° |
| 2026-05-08 12:03 | 22.80028 | 117.34117 | 38022 ft | 453 kts | 253° |
| 2026-05-08 12:03 | 22.77925 | 117.27684 | 38022 ft | 453 kts | 253° |
| 2026-05-08 12:04 | 22.75821 | 117.21257 | 38023 ft | 452 kts | 253° |
| 2026-05-08 12:04 | 22.73722 | 117.14858 | 37996 ft | 446 kts | 253° |
| 2026-05-08 12:05 | 22.72693 | 117.11729 | 37905 ft | 435 kts | 253° |
| 2026-05-08 12:05 | 22.71679 | 117.08649 | 37611 ft | 439 kts | 253° |
| 2026-05-08 12:05 | 22.70642 | 117.05481 | 37311 ft | 454 kts | 253° |
| 2026-05-08 12:05 | 22.69570 | 117.02205 | 37014 ft | 468 kts | 253° |
| 2026-05-08 12:06 | 22.68495 | 116.98935 | 36692 ft | 467 kts | 253° |
| 2026-05-08 12:06 | 22.67389 | 116.95584 | 36382 ft | 465 kts | 253° |
| 2026-05-08 12:06 | 22.66316 | 116.92337 | 36066 ft | 464 kts | 253° |
| 2026-05-08 12:06 | 22.65231 | 116.89057 | 35757 ft | 462 kts | 253° |
| 2026-05-08 12:07 | 22.64151 | 116.85790 | 35440 ft | 460 kts | 253° |
| 2026-05-08 12:07 | 22.63076 | 116.82541 | 35151 ft | 458 kts | 253° |
| 2026-05-08 12:07 | 22.62005 | 116.79306 | 34848 ft | 456 kts | 252° |
| 2026-05-08 12:07 | 22.60938 | 116.76081 | 34536 ft | 454 kts | 252° |
| 2026-05-08 12:08 | 22.59871 | 116.72860 | 34180 ft | 454 kts | 252° |
| 2026-05-08 12:08 | 22.58804 | 116.69640 | 33743 ft | 455 kts | 252° |
| 2026-05-08 12:08 | 22.57736 | 116.66420 | 33289 ft | 454 kts | 252° |
| 2026-05-08 12:08 | 22.56671 | 116.63213 | 32853 ft | 450 kts | 252° |
| 2026-05-08 12:09 | 22.55619 | 116.60049 | 32379 ft | 445 kts | 252° |
| 2026-05-08 12:09 | 22.54578 | 116.56920 | 31947 ft | 439 kts | 252° |
| 2026-05-08 12:09 | 22.53549 | 116.53829 | 31518 ft | 434 kts | 252° |
| 2026-05-08 12:09 | 22.52531 | 116.50772 | 31089 ft | 429 kts | 252° |
| 2026-05-08 12:10 | 22.51524 | 116.47750 | 30657 ft | 425 kts | 252° |
| 2026-05-08 12:10 | 22.50525 | 116.44756 | 30257 ft | 421 kts | 252° |
| 2026-05-08 12:10 | 22.49536 | 116.41790 | 30050 ft | 418 kts | 252° |
| 2026-05-08 12:10 | 22.48535 | 116.38789 | 30039 ft | 433 kts | 252° |
| 2026-05-08 12:11 | 22.47493 | 116.35662 | 30020 ft | 448 kts | 251° |
| 2026-05-08 12:11 | 22.46453 | 116.32553 | 30005 ft | 444 kts | 251° |
| 2026-05-08 12:11 | 22.44368 | 116.26332 | 30003 ft | 439 kts | 251° |
| 2026-05-08 12:12 | 22.42291 | 116.20138 | 29994 ft | 439 kts | 251° |
| 2026-05-08 12:12 | 22.40199 | 116.13905 | 29996 ft | 436 kts | 251° |
| 2026-05-08 12:13 | 22.39180 | 116.10879 | 29981 ft | 420 kts | 251° |
| 2026-05-08 12:13 | 22.38200 | 116.07969 | 29983 ft | 404 kts | 251° |
| 2026-05-08 12:13 | 22.37256 | 116.05167 | 29971 ft | 390 kts | 251° |
| 2026-05-08 12:13 | 22.36347 | 116.02469 | 29985 ft | 375 kts | 251° |
| 2026-05-08 12:14 | 22.35472 | 115.99872 | 29971 ft | 361 kts | 251° |
| 2026-05-08 12:14 | 22.34630 | 115.97374 | 29985 ft | 347 kts | 251° |
| 2026-05-08 12:14 | 22.33010 | 115.92565 | 30007 ft | 344 kts | 251° |
| 2026-05-08 12:15 | 22.32166 | 115.90057 | 30012 ft | 368 kts | 251° |
| 2026-05-08 12:15 | 22.31261 | 115.87369 | 29636 ft | 392 kts | 251° |
| 2026-05-08 12:15 | 22.30311 | 115.84560 | 29145 ft | 403 kts | 251° |
| 2026-05-08 12:15 | 22.29496 | 115.81657 | 28649 ft | 405 kts | 258° |
| 2026-05-08 12:16 | 22.29017 | 115.78656 | 28074 ft | 407 kts | 264° |
| 2026-05-08 12:16 | 22.28788 | 115.75616 | 27531 ft | 407 kts | 267° |
| 2026-05-08 12:16 | 22.28634 | 115.72610 | 27093 ft | 405 kts | 268° |
| 2026-05-08 12:16 | 22.28497 | 115.69548 | 26802 ft | 401 kts | 268° |
| 2026-05-08 12:17 | 22.28367 | 115.66543 | 26519 ft | 401 kts | 268° |
| 2026-05-08 12:17 | 22.28233 | 115.63526 | 26245 ft | 403 kts | 268° |
| 2026-05-08 12:17 | 22.28095 | 115.60504 | 25972 ft | 404 kts | 268° |
| 2026-05-08 12:17 | 22.27953 | 115.57473 | 25699 ft | 405 kts | 268° |
| 2026-05-08 12:18 | 22.27807 | 115.54439 | 25426 ft | 405 kts | 268° |
| 2026-05-08 12:18 | 22.27661 | 115.51448 | 25153 ft | 404 kts | 268° |
| 2026-05-08 12:18 | 22.27513 | 115.48425 | 24883 ft | 402 kts | 268° |
| 2026-05-08 12:18 | 22.27363 | 115.45415 | 24617 ft | 401 kts | 268° |
| 2026-05-08 12:19 | 22.27214 | 115.42419 | 24350 ft | 398 kts | 268° |
| 2026-05-08 12:19 | 22.27066 | 115.39443 | 24084 ft | 396 kts | 268° |
| 2026-05-08 12:19 | 22.26917 | 115.36478 | 23812 ft | 395 kts | 268° |
| 2026-05-08 12:19 | 22.26769 | 115.33525 | 23552 ft | 393 kts | 268° |
| 2026-05-08 12:20 | 22.26620 | 115.30584 | 23239 ft | 391 kts | 268° |
| 2026-05-08 12:20 | 22.26472 | 115.27658 | 22937 ft | 390 kts | 268° |
| 2026-05-08 12:20 | 22.26325 | 115.24740 | 22627 ft | 388 kts | 268° |
| 2026-05-08 12:20 | 22.26177 | 115.21838 | 22326 ft | 387 kts | 268° |
| 2026-05-08 12:21 | 22.26029 | 115.18947 | 22026 ft | 385 kts | 268° |
| 2026-05-08 12:21 | 22.25882 | 115.16071 | 21744 ft | 383 kts | 268° |
| 2026-05-08 12:21 | 22.25736 | 115.13241 | 21597 ft | 374 kts | 267° |
| 2026-05-08 12:21 | 22.25591 | 115.10430 | 21110 ft | 376 kts | 267° |
| 2026-05-08 12:22 | 22.25445 | 115.07609 | 20596 ft | 378 kts | 267° |
| 2026-05-08 12:22 | 22.25297 | 115.04768 | 20065 ft | 380 kts | 267° |
| 2026-05-08 12:22 | 22.25148 | 115.01910 | 19559 ft | 382 kts | 266° |
| 2026-05-08 12:22 | 22.24999 | 114.99068 | 19252 ft | 378 kts | 266° |
| 2026-05-08 12:23 | 22.24851 | 114.96250 | 19038 ft | 372 kts | 267° |
| 2026-05-08 12:23 | 22.24706 | 114.93496 | 18872 ft | 364 kts | 267° |
| 2026-05-08 12:23 | 22.24562 | 114.90781 | 18579 ft | 361 kts | 266° |
| 2026-05-08 12:23 | 22.24419 | 114.88080 | 18233 ft | 360 kts | 266° |
| 2026-05-08 12:24 | 22.24275 | 114.85387 | 17825 ft | 359 kts | 266° |
| 2026-05-08 12:24 | 22.24132 | 114.82701 | 17467 ft | 358 kts | 266° |
| 2026-05-08 12:24 | 22.24000 | 114.80028 | 17116 ft | 356 kts | 268° |
| 2026-05-08 12:24 | 22.23923 | 114.77367 | 16769 ft | 354 kts | 269° |
| 2026-05-08 12:25 | 22.23866 | 114.74716 | 16422 ft | 352 kts | 269° |
| 2026-05-08 12:25 | 22.23812 | 114.72081 | 16084 ft | 351 kts | 269° |
| 2026-05-08 12:25 | 22.23755 | 114.69454 | 15752 ft | 349 kts | 269° |
| 2026-05-08 12:25 | 22.23695 | 114.66842 | 15424 ft | 348 kts | 269° |
| 2026-05-08 12:26 | 22.23633 | 114.64239 | 15101 ft | 346 kts | 269° |
| 2026-05-08 12:26 | 22.23569 | 114.61649 | 14779 ft | 345 kts | 269° |
| 2026-05-08 12:26 | 22.23503 | 114.59064 | 14462 ft | 344 kts | 269° |
| 2026-05-08 12:26 | 22.23437 | 114.56494 | 14159 ft | 342 kts | 269° |
| 2026-05-08 12:27 | 22.23370 | 114.53931 | 13857 ft | 341 kts | 269° |
| 2026-05-08 12:27 | 22.23303 | 114.51378 | 13530 ft | 340 kts | 269° |
| 2026-05-08 12:27 | 22.23236 | 114.48835 | 13198 ft | 338 kts | 269° |
| 2026-05-08 12:27 | 22.23168 | 114.46303 | 12885 ft | 337 kts | 269° |
| 2026-05-08 12:28 | 22.23101 | 114.43786 | 12569 ft | 335 kts | 269° |
| 2026-05-08 12:28 | 22.23033 | 114.41276 | 12248 ft | 334 kts | 269° |
| 2026-05-08 12:28 | 22.22965 | 114.38774 | 11944 ft | 333 kts | 269° |
| 2026-05-08 12:28 | 22.22897 | 114.36284 | 11633 ft | 332 kts | 269° |
| 2026-05-08 12:29 | 22.22829 | 114.33800 | 11328 ft | 331 kts | 269° |
| 2026-05-08 12:29 | 22.22761 | 114.31321 | 11038 ft | 330 kts | 269° |
| 2026-05-08 12:29 | 22.22693 | 114.28857 | 10746 ft | 328 kts | 269° |
| 2026-05-08 12:29 | 22.22624 | 114.26398 | 10463 ft | 327 kts | 269° |
| 2026-05-08 12:30 | 22.22555 | 114.23948 | 10163 ft | 326 kts | 269° |
| 2026-05-08 12:30 | 22.22487 | 114.21539 | 9904 ft | 325 kts | 269° |
| 2026-05-08 12:30 | 22.22418 | 114.19103 | 9620 ft | 324 kts | 269° |
| 2026-05-08 12:30 | 22.22349 | 114.16673 | 9329 ft | 323 kts | 269° |
| 2026-05-08 12:31 | 22.22280 | 114.14255 | 9031 ft | 322 kts | 268° |
| 2026-05-08 12:31 | 22.22211 | 114.11848 | 8733 ft | 321 kts | 268° |
| 2026-05-08 12:31 | 22.22142 | 114.09460 | 8508 ft | 309 kts | 268° |
| 2026-05-08 12:31 | 22.22077 | 114.07230 | 8271 ft | 287 kts | 268° |
| 2026-05-08 12:32 | 22.22016 | 114.05132 | 7851 ft | 274 kts | 268° |
| 2026-05-08 12:32 | 22.21956 | 114.03075 | 7499 ft | 273 kts | 268° |
| 2026-05-08 12:32 | 22.21893 | 114.01069 | 7517 ft | 264 kts | 268° |
| 2026-05-08 12:32 | 22.21828 | 113.99092 | 7522 ft | 265 kts | 268° |
| 2026-05-08 12:33 | 22.21761 | 113.97087 | 7521 ft | 268 kts | 268° |
| 2026-05-08 12:33 | 22.21697 | 113.95109 | 7495 ft | 260 kts | 268° |
| 2026-05-08 12:33 | 22.21635 | 113.93207 | 7294 ft | 248 kts | 268° |
| 2026-05-08 12:33 | 22.21575 | 113.91387 | 6903 ft | 238 kts | 268° |
| 2026-05-08 12:34 | 22.21581 | 113.89627 | 6415 ft | 233 kts | 281° |
| 2026-05-08 12:34 | 22.22284 | 113.88094 | 5763 ft | 231 kts | 316° |
| 2026-05-08 12:34 | 22.23640 | 113.87270 | 5310 ft | 221 kts | 348° |
| 2026-05-08 12:34 | 22.25115 | 113.87264 | 4977 ft | 206 kts | 12° |
| 2026-05-08 12:35 | 22.26400 | 113.87808 | 4642 ft | 195 kts | 37° |
| 2026-05-08 12:35 | 22.27043 | 113.88451 | 4476 ft | 187 kts | 46° |
| 2026-05-08 12:35 | 22.27975 | 113.89480 | 4496 ft | 196 kts | 44° |
| 2026-05-08 12:35 | 22.28940 | 113.90518 | 4469 ft | 195 kts | 45° |
| 2026-05-08 12:36 | 22.29907 | 113.91520 | 4460 ft | 192 kts | 43° |
| 2026-05-08 12:36 | 22.30879 | 113.92501 | 4434 ft | 192 kts | 42° |
| 2026-05-08 12:36 | 22.31670 | 113.93647 | 4184 ft | 194 kts | 75° |
| 2026-05-08 12:36 | 22.31772 | 113.95078 | 3989 ft | 191 kts | 87° |
| 2026-05-08 12:37 | 22.31850 | 113.96519 | 3763 ft | 193 kts | 85° |
| 2026-05-08 12:37 | 22.31944 | 113.97966 | 3513 ft | 193 kts | 85° |
| 2026-05-08 12:37 | 22.32037 | 113.99394 | 3285 ft | 188 kts | 84° |
| 2026-05-08 12:37 | 22.32130 | 114.00821 | 2869 ft | 194 kts | 84° |
| 2026-05-08 12:38 | 22.32227 | 114.02301 | 2462 ft | 200 kts | 84° |
| 2026-05-08 12:38 | 22.32327 | 114.03806 | 2108 ft | 202 kts | 85° |
| 2026-05-08 12:38 | 22.32427 | 114.05325 | 1757 ft | 203 kts | 85° |
| 2026-05-08 12:38 | 22.32528 | 114.06852 | 1358 ft | 204 kts | 84° |
| 2026-05-08 12:39 | 22.32625 | 114.08332 | 1024 ft | 189 kts | 85° |
| 2026-05-08 12:39 | 22.32714 | 114.09674 | 795 ft | 171 kts | 85° |
| 2026-05-08 12:39 | 22.32797 | 114.10938 | 586 ft | 167 kts | 85° |
| 2026-05-08 12:39 | 22.32883 | 114.12188 | 566 ft | 169 kts | 85° |
| 2026-05-08 12:40 | 22.32970 | 114.13438 | 659 ft | 166 kts | 86° |
| 2026-05-08 12:40 | 22.33051 | 114.14669 | 675 ft | 161 kts | 86° |
| 2026-05-08 12:40 | 22.33102 | 114.15849 | 502 ft | 153 kts | 91° |
| 2026-05-08 12:40 | 22.33105 | 114.16963 | 439 ft | 148 kts | 89° |
| 2026-05-08 12:41 | 22.33175 | 114.18065 | 449 ft | 148 kts | 86° |
| 2026-05-08 12:41 | 22.32743 | 114.19036 | 205 ft | 151 kts | 137° |
| 2026-05-08 12:41 | 22.32028 | 114.19821 | 36 ft | 141 kts | 135° |
| 2026-05-08 12:41 | 22.31426 | 114.20490 | 33 ft | 100 kts | 134° |
| 2026-05-08 12:42 | 22.31077 | 114.20888 | 33 ft | 46 kts | 133° |
| 2026-05-08 12:42 | 22.30958 | 114.21032 | 33 ft | 6 kts | 103° |
| 2026-05-08 12:42 | 22.30982 | 114.21080 | 35 ft | 11 kts | 43° |
| 2026-05-08 12:42 | 22.31050 | 114.21061 | 34 ft | 17 kts | 318° |
| 2026-05-08 12:43 | 22.31165 | 114.20927 | 34 ft | 26 kts | 314° |
| 2026-05-08 12:43 | 22.31291 | 114.20787 | 34 ft | 26 kts | 314° |
| 2026-05-08 12:43 | 22.31417 | 114.20652 | 33 ft | 26 kts | 314° |
| 2026-05-08 12:43 | 22.31542 | 114.20511 | 34 ft | 26 kts | 314° |
| 2026-05-08 12:44 | 22.31667 | 114.20370 | 34 ft | 26 kts | 314° |
| 2026-05-08 12:44 | 22.31794 | 114.20232 | 34 ft | 26 kts | 313° |
| 2026-05-08 12:44 | 22.31917 | 114.20090 | 34 ft | 26 kts | 314° |
| 2026-05-08 12:44 | 22.32042 | 114.19949 | 34 ft | 26 kts | 314° |
| 2026-05-08 12:45 | 22.32167 | 114.19809 | 34 ft | 26 kts | 314° |
| 2026-05-08 12:45 | 22.32295 | 114.19671 | 34 ft | 26 kts | 314° |
| 2026-05-08 12:45 | 22.32426 | 114.19538 | 34 ft | 26 kts | 318° |
| 2026-05-08 12:45 | 22.32561 | 114.19408 | 34 ft | 26 kts | 329° |
| 2026-05-08 12:46 | 22.32689 | 114.19506 | 34 ft | 26 kts | 61° |
| 2026-05-08 12:46 | 22.32773 | 114.19520 | 34 ft | 5 kts | 311° |
| 2026-05-08 12:46 | 22.32792 | 114.19499 | 34 ft | 0 kts | 314° |